Terminal Aerodrome Forecast
Issued by NWS Portland, OR

Home | Current Version | Previous Version | Text Only | Print | Product List | Glossary On
Versions: 1 2 3 4 5 6 7 8 9 10 11 12 13 14 15 16 17 18 19 20 21 22 23 24 25 26 27
000
FTUS46 KPQR 241130
TAFAST
TAF
KAST 241130Z 2412/2512 13004KT 6SM BR SCT015
     FM241600 34008KT P6SM SKC
     FM242200 32015G21KT P6SM SKC
     FM250400 32013G18KT P6SM OVC009
     FM250600 30009KT 4SM BR OVC007=

USA.gov is the U.S. government's official web portal to all federal, state and local government web resources and services.